METAR Data
IDs: Format: Raw Decoded Include TAF

Data at: 1345 UTC 07 Jul 2020

METAR for:KHEF (Manassas Rgnl, VA, US)
Text:KHEF 071256Z 11004KT 10SM OVC011 24/21 A3007 RMK AO2 SLP187 T02390211
Temperature: 23.9°C ( 75°F)
Dewpoint: 21.1°C ( 70°F) [RH = 84%]
Pressure (altimeter):30.07 inches Hg (1018.4 mb) [Sea level pressure: 1018.7 mb]
Winds:from the ESE (110 degrees) at 5 MPH (4 knots; 2.1 m/s)
Visibility:10 or more sm (16+ km)
Ceiling:1100 feet AGL
Clouds: overcast cloud deck at 1100 feet AGL